Aérodrome :
LOGIN :

S'inscrire | Disclaimer

   EN    FR    IT 

 










Légende :    VFR   VFR Marginal   IFR   IFR Intensif   IFR Très Intensif
Visi : 
Plafond : 
>= 8 km
>= 3000ft
5 à 8 km
1000 à 3000 ft
1500m à 5 km
500 à 1000 ft
800 à 1500m
200 à 500 ft
< 800m
< 200 ft
Symboles :   Orages  Brouillard  Fortes neiges  Fortes précipitations  Vent > 20 kt
SIGMETs :   Divers  Orages  Givrage  Turbulence  Onde Orograph.  Cendres Volcan.







- Altitude de l'aérodrome : 93 ft
- Code IATA : XRY


LEJR - Jerez

DERNIER METAR :
  • 230800Z 27007KT 240V300 CAVOK 09/07 Q1018

METARs EXPIRÉS :
  • 230730Z 27005KT 240V310 CAVOK 09/07 Q1019
  • 230700Z 27007KT 240V310 CAVOK 09/07 Q1018
  • 230630Z 28007KT 250V320 CAVOK 09/07 Q1018
  • 230600Z 28005KT 230V320 CAVOK 09/07 Q1019
  • 230530Z 27006KT 240V310 CAVOK 09/07 Q1018
  • 230500Z 28008KT 250V320 CAVOK 10/07 Q1018

TAF TAF LEJR
Valide du 23 à 06h jusqu'au 24 à 06h UTC


230500Z 2306/2406 29009KT 9999 SCT030 TX17/2315Z TN07/2406Z
PROB40
TEMPO 2311/2317 29015G25KT
Pas de NOTAMs connus pour ce terrain.
1 SIGMET publié pour la FIR Madrid (LECM) :
 
Turbulence forte
LECM SIGMET 2 VALID 230800/231200 LEVA
LECM MADRID FIR SEV TURB FCST E OF LINE N3555 W00407 - N3643 W00347 SFC/FL040 STNR NC=



MET'MAP, la Météo Aéronautique d'un coup d'oeil ! - Copyright ORBIFLY Décembre 2007 - Disclaimer

ORBIFLY MET'MAP TEAM :

Programmation & Développement : Alexandra Zaïnal
Conception & Développement : Baudouin d'Aumeries
Co-Programmation & Développement : Marc-Olivier Méhu
Soutien technique & logistique : Manuel Goepfert

Contact : metmap@orbifly.com




SOURCES & CREDITS :

   NOAA